createdAt,value
2018-10-04T00:00:42.490Z,14.70
2018-10-04T00:03:11.438Z,14.71
2018-10-04T00:05:40.363Z,14.73
2018-10-04T00:08:09.468Z,14.74
2018-10-04T00:10:38.346Z,14.74
2018-10-04T00:13:08.131Z,14.73
2018-10-04T00:15:37.118Z,14.73
2018-10-04T00:18:06.942Z,14.72
2018-10-04T00:20:35.852Z,14.71
2018-10-04T00:23:04.785Z,14.70
2018-10-04T00:25:33.690Z,14.68
2018-10-04T00:28:02.678Z,14.66
2018-10-04T00:30:31.682Z,14.64
2018-10-04T00:33:00.757Z,14.61
2018-10-04T00:35:30.242Z,14.58
2018-10-04T00:37:59.181Z,14.59
2018-10-04T00:40:28.266Z,14.57
2018-10-04T00:42:57.218Z,14.56
2018-10-04T00:45:26.291Z,14.55
2018-10-04T00:47:55.359Z,14.56
2018-10-04T00:50:24.299Z,14.53
2018-10-04T00:52:53.950Z,14.50
2018-10-04T00:55:23.531Z,14.47
2018-10-04T00:57:52.482Z,14.46
2018-10-04T01:00:21.686Z,14.42
2018-10-04T01:02:50.947Z,14.39
2018-10-04T01:05:20.714Z,14.37
2018-10-04T01:07:49.846Z,14.36
2018-10-04T01:10:18.902Z,14.35
2018-10-04T01:12:48.155Z,14.34
2018-10-04T01:15:17.819Z,14.33
2018-10-04T01:17:47.124Z,14.31
2018-10-04T01:20:15.932Z,14.29
2018-10-04T01:22:44.958Z,14.28
2018-10-04T01:25:13.966Z,14.25
2018-10-04T01:27:43.118Z,14.23
2018-10-04T01:30:12.111Z,14.21
2018-10-04T01:32:41.175Z,14.21
2018-10-04T01:35:10.113Z,14.19
2018-10-04T01:37:39.783Z,14.16
2018-10-04T01:40:08.830Z,14.11
2018-10-04T01:42:38.520Z,14.06
2018-10-04T01:45:07.528Z,14.04
2018-10-04T01:47:36.593Z,13.99
2018-10-04T01:50:05.367Z,13.96
2018-10-04T01:52:34.550Z,13.94
2018-10-04T01:55:03.676Z,13.91
2018-10-04T01:57:39.797Z,13.92
2018-10-04T02:00:08.889Z,13.90
2018-10-04T02:02:37.862Z,13.87
2018-10-04T02:05:08.479Z,13.86
2018-10-04T02:07:37.658Z,13.81
2018-10-04T02:10:06.567Z,13.78
2018-10-04T02:12:35.471Z,13.75
2018-10-04T02:15:04.383Z,13.71
2018-10-04T02:17:33.952Z,13.69
2018-10-04T02:20:02.854Z,13.64
2018-10-04T02:22:31.890Z,13.62
2018-10-04T02:25:00.699Z,13.59
2018-10-04T02:27:29.986Z,13.56
2018-10-04T02:29:59.124Z,13.54
2018-10-04T02:32:28.221Z,13.53
2018-10-04T02:34:57.110Z,13.48
2018-10-04T02:37:26.492Z,13.45
2018-10-04T02:39:55.517Z,13.44
2018-10-04T02:42:24.669Z,13.41
2018-10-04T02:44:53.848Z,13.39
2018-10-04T02:47:22.587Z,13.38
2018-10-04T02:49:51.626Z,13.38
2018-10-04T02:52:21.035Z,13.39
2018-10-04T02:54:55.619Z,13.37
2018-10-04T02:57:24.701Z,13.37
2018-10-04T02:59:53.962Z,13.34
2018-10-04T03:02:22.975Z,13.35
2018-10-04T03:04:52.065Z,13.35
2018-10-04T03:07:22.007Z,13.35
2018-10-04T03:09:52.027Z,13.35
2018-10-04T03:12:21.004Z,13.34
2018-10-04T03:14:50.174Z,13.35
2018-10-04T03:17:19.146Z,13.33
2018-10-04T03:19:48.205Z,13.33
2018-10-04T03:22:17.350Z,13.33
2018-10-04T03:24:46.393Z,13.30
2018-10-04T03:27:15.435Z,13.29
2018-10-04T03:29:44.433Z,13.28
2018-10-04T03:32:13.854Z,13.28
2018-10-04T03:34:42.782Z,13.26
2018-10-04T03:37:11.802Z,13.24
2018-10-04T03:39:40.753Z,13.22
2018-10-04T03:42:09.774Z,13.21
2018-10-04T03:44:38.809Z,13.21
2018-10-04T03:47:07.769Z,13.19
2018-10-04T03:49:36.829Z,13.19
2018-10-04T03:52:05.894Z,13.18
2018-10-04T03:54:34.904Z,13.18
2018-10-04T03:57:03.826Z,13.20
2018-10-04T03:59:32.844Z,13.19
2018-10-04T04:02:01.830Z,13.20
2018-10-04T04:04:30.829Z,13.22
2018-10-04T04:06:59.748Z,13.22
2018-10-04T04:09:28.709Z,13.23
2018-10-04T04:11:57.657Z,13.23
2018-10-04T04:14:26.465Z,13.25
2018-10-04T04:16:55.242Z,13.26
2018-10-04T04:19:24.508Z,13.28
2018-10-04T04:21:54.351Z,13.29
2018-10-04T04:24:23.282Z,13.27
2018-10-04T04:26:52.188Z,13.27
2018-10-04T04:29:21.006Z,13.27
2018-10-04T04:31:49.937Z,13.26
2018-10-04T04:34:19.420Z,13.26
2018-10-04T04:36:48.621Z,13.27
2018-10-04T04:39:17.609Z,13.28
2018-10-04T04:41:46.592Z,13.28
2018-10-04T04:44:15.755Z,13.29
2018-10-04T04:46:44.746Z,13.30
2018-10-04T04:49:13.885Z,13.31
2018-10-04T04:51:43.028Z,13.31
2018-10-04T04:54:21.872Z,13.32
2018-10-04T04:56:50.950Z,13.32
2018-10-04T04:59:20.587Z,13.31
2018-10-04T05:01:49.709Z,13.31
2018-10-04T05:04:18.661Z,13.32
2018-10-04T05:06:47.764Z,13.32
2018-10-04T05:09:17.043Z,13.33
2018-10-04T05:11:45.937Z,13.33
2018-10-04T05:14:14.939Z,13.32
2018-10-04T05:16:44.095Z,13.32
2018-10-04T05:19:13.001Z,13.33
2018-10-04T05:21:42.610Z,13.31
2018-10-04T05:24:11.760Z,13.31
2018-10-04T05:26:40.832Z,13.29
2018-10-04T05:29:10.107Z,13.29
2018-10-04T05:31:39.051Z,13.29
2018-10-04T05:34:07.947Z,13.30
2018-10-04T05:36:37.306Z,13.30
2018-10-04T05:39:06.414Z,13.32
2018-10-04T05:41:35.372Z,13.32
2018-10-04T05:44:04.436Z,13.32
2018-10-04T05:46:33.491Z,13.33
2018-10-04T05:49:02.337Z,13.35
2018-10-04T05:51:31.372Z,13.35
2018-10-04T05:54:00.366Z,13.37
2018-10-04T05:56:29.310Z,13.38
2018-10-04T05:58:58.910Z,13.39
2018-10-04T06:01:28.024Z,13.42
2018-10-04T06:03:56.989Z,13.44
2018-10-04T06:06:25.949Z,13.45
2018-10-04T06:08:54.954Z,13.45
2018-10-04T06:11:23.896Z,13.46
2018-10-04T06:13:52.981Z,13.47
2018-10-04T06:16:22.156Z,13.47
2018-10-04T06:18:51.837Z,13.47
2018-10-04T06:21:20.846Z,13.47
2018-10-04T06:23:49.714Z,13.52
2018-10-04T06:26:19.063Z,13.53
2018-10-04T06:28:48.243Z,13.56
2018-10-04T06:31:17.352Z,13.60
2018-10-04T06:33:46.319Z,13.62
2018-10-04T06:36:15.838Z,13.65
2018-10-04T06:38:45.031Z,13.67
2018-10-04T06:41:14.024Z,13.71
2018-10-04T06:43:43.061Z,13.75
2018-10-04T06:46:12.125Z,13.79
2018-10-04T06:48:41.541Z,13.81
2018-10-04T06:51:10.588Z,13.81
2018-10-04T06:53:39.497Z,13.82
2018-10-04T06:56:08.536Z,13.83
2018-10-04T06:58:38.001Z,13.87
2018-10-04T07:01:08.072Z,13.90
2018-10-04T07:03:37.996Z,13.93
2018-10-04T07:06:07.048Z,13.99
2018-10-04T07:08:36.275Z,14.04
2018-10-04T07:11:06.450Z,14.08
2018-10-04T07:13:35.366Z,14.11
2018-10-04T07:16:04.449Z,14.15
2018-10-04T07:18:34.029Z,14.20
2018-10-04T07:21:03.109Z,14.26
2018-10-04T07:23:32.362Z,14.30
2018-10-04T07:26:01.365Z,14.35
2018-10-04T07:28:30.179Z,14.40
2018-10-04T07:30:59.030Z,14.46
2018-10-04T07:33:28.014Z,14.53
2018-10-04T07:35:56.889Z,14.59
2018-10-04T07:38:25.867Z,14.64
2018-10-04T07:40:54.902Z,14.68
2018-10-04T07:43:23.807Z,14.74
2018-10-04T07:45:53.261Z,14.76
2018-10-04T07:48:22.169Z,14.80
2018-10-04T07:50:51.101Z,14.84
2018-10-04T07:53:20.195Z,14.89
2018-10-04T07:55:49.167Z,14.95
2018-10-04T07:58:18.321Z,14.99
2018-10-04T08:00:47.473Z,15.04
2018-10-04T08:03:16.371Z,15.09
2018-10-04T08:05:45.512Z,15.17
2018-10-04T08:08:14.554Z,15.24
2018-10-04T08:10:43.578Z,15.30
2018-10-04T08:13:12.763Z,15.35
2018-10-04T08:15:41.673Z,15.39
2018-10-04T08:18:10.622Z,15.46
2018-10-04T08:20:39.625Z,15.55
2018-10-04T08:23:08.728Z,15.62
2018-10-04T08:25:37.798Z,15.69
2018-10-04T08:28:06.922Z,15.77
2018-10-04T08:30:35.900Z,15.83
2018-10-04T08:33:04.802Z,15.86
2018-10-04T08:35:33.664Z,15.90
2018-10-04T08:38:02.551Z,15.96
2018-10-04T08:40:31.731Z,16.02
2018-10-04T08:43:00.790Z,16.09
2018-10-04T08:45:29.798Z,16.17
2018-10-04T08:47:58.928Z,16.23
2018-10-04T08:50:28.240Z,16.30
2018-10-04T08:52:57.711Z,16.33
2018-10-04T08:55:31.743Z,16.38
2018-10-04T08:58:01.394Z,16.44
2018-10-04T09:00:31.466Z,16.47
2018-10-04T09:03:02.615Z,16.52
2018-10-04T09:05:32.105Z,16.58
2018-10-04T09:08:01.095Z,16.62
2018-10-04T09:10:30.259Z,16.68
2018-10-04T09:12:59.343Z,16.75
2018-10-04T09:15:28.106Z,16.80
2018-10-04T09:17:57.206Z,16.84
2018-10-04T09:20:26.222Z,16.92
2018-10-04T09:22:55.343Z,16.98
2018-10-04T09:25:24.513Z,17.03
2018-10-04T09:27:53.819Z,17.12
2018-10-04T09:30:27.793Z,17.16
2018-10-04T09:32:57.064Z,17.17
2018-10-04T09:35:26.088Z,17.21
2018-10-04T09:37:55.128Z,17.25
2018-10-04T09:40:24.079Z,17.29
2018-10-04T09:42:53.077Z,17.32
2018-10-04T09:45:21.975Z,17.44
2018-10-04T09:47:55.607Z,17.45
2018-10-04T09:50:28.856Z,17.62
2018-10-04T09:52:58.018Z,17.69
2018-10-04T09:55:31.353Z,17.83
2018-10-04T09:58:00.368Z,17.86
2018-10-04T10:00:34.624Z,17.84
2018-10-04T10:03:07.966Z,17.84
2018-10-04T10:05:36.929Z,17.84
2018-10-04T10:08:06.072Z,17.85
2018-10-04T10:10:35.174Z,17.88
2018-10-04T10:13:04.233Z,17.94
2018-10-04T10:15:33.277Z,18.01
2018-10-04T10:18:03.260Z,18.06
2018-10-04T10:20:32.241Z,18.16
2018-10-04T10:23:01.152Z,18.25
2018-10-04T10:25:30.148Z,18.32
2018-10-04T10:27:59.147Z,18.39
2018-10-04T10:30:28.158Z,18.46
2018-10-04T10:32:58.067Z,18.56
2018-10-04T10:35:26.959Z,18.66
2018-10-04T10:37:56.157Z,18.74
2018-10-04T10:40:25.255Z,18.83
2018-10-04T10:42:54.351Z,18.94
2018-10-04T10:45:23.882Z,19.01
2018-10-04T10:47:52.931Z,19.07
2018-10-04T10:50:21.906Z,19.10
2018-10-04T10:52:50.758Z,19.13
2018-10-04T10:55:19.638Z,19.15
2018-10-04T10:57:48.683Z,19.17
2018-10-04T11:00:17.935Z,19.14
2018-10-04T11:02:47.921Z,19.10
2018-10-04T11:05:16.952Z,19.15
2018-10-04T11:07:46.028Z,19.25
2018-10-04T11:10:14.948Z,19.36
2018-10-04T11:12:43.997Z,19.45
2018-10-04T11:15:13.724Z,19.52
2018-10-04T11:17:42.733Z,19.60
2018-10-04T11:20:12.427Z,19.61
2018-10-04T11:22:41.224Z,19.62
2018-10-04T11:25:10.393Z,19.64
2018-10-04T11:27:39.303Z,19.68
2018-10-04T11:30:09.093Z,19.74
2018-10-04T11:32:39.832Z,19.80
2018-10-04T11:35:11.948Z,19.86
2018-10-04T11:37:41.414Z,19.88
2018-10-04T11:40:10.856Z,19.92
2018-10-04T11:42:41.108Z,19.92
2018-10-04T11:45:16.227Z,19.91
2018-10-04T11:47:46.003Z,19.80
2018-10-04T11:50:30.625Z,19.81
2018-10-04T11:52:59.666Z,19.89
2018-10-04T11:55:28.568Z,19.95
2018-10-04T11:57:57.706Z,20.06
2018-10-04T12:00:27.666Z,20.18
2018-10-04T12:02:56.665Z,20.31
2018-10-04T12:05:25.732Z,20.37
2018-10-04T12:07:55.183Z,20.40
2018-10-04T12:10:24.140Z,20.46
2018-10-04T12:12:53.109Z,20.48
2018-10-04T12:15:22.335Z,20.40
2018-10-04T12:17:51.289Z,20.45
2018-10-04T12:20:20.134Z,20.51
2018-10-04T12:22:49.306Z,20.60
2018-10-04T12:25:19.118Z,20.71
2018-10-04T12:27:48.385Z,20.81
2018-10-04T12:30:17.851Z,20.92
2018-10-04T12:32:46.728Z,21.02
2018-10-04T12:35:15.853Z,20.99
2018-10-04T12:37:44.816Z,20.93
2018-10-04T12:40:13.926Z,20.96
2018-10-04T12:42:42.887Z,21.00
2018-10-04T12:45:12.318Z,21.06
2018-10-04T12:47:41.433Z,21.12
2018-10-04T12:50:10.411Z,21.15
2018-10-04T12:52:39.475Z,21.18
2018-10-04T12:55:08.602Z,21.22
2018-10-04T12:57:37.536Z,21.32
2018-10-04T13:00:07.494Z,21.41
2018-10-04T13:02:36.987Z,21.52
2018-10-04T13:05:06.504Z,21.65
2018-10-04T13:07:35.343Z,21.76
2018-10-04T13:10:05.150Z,21.79
2018-10-04T13:12:34.215Z,21.68
2018-10-04T13:15:03.213Z,21.56
2018-10-04T13:17:32.322Z,21.58
2018-10-04T13:20:01.420Z,21.64
2018-10-04T13:22:30.610Z,21.66
2018-10-04T13:24:59.899Z,21.75
2018-10-04T13:27:28.930Z,21.80
2018-10-04T13:29:57.962Z,21.87
2018-10-04T13:32:27.105Z,21.87
2018-10-04T13:34:56.119Z,21.83
2018-10-04T13:37:25.133Z,21.78
2018-10-04T13:39:54.961Z,21.77
2018-10-04T13:42:24.015Z,21.80
2018-10-04T13:44:52.955Z,21.79
2018-10-04T13:47:22.277Z,21.73
2018-10-04T13:49:51.297Z,21.69
2018-10-04T13:52:20.255Z,21.69
2018-10-04T13:54:49.164Z,21.74
2018-10-04T13:57:18.343Z,21.79
2018-10-04T13:59:47.186Z,21.83
2018-10-04T14:02:16.091Z,21.86
2018-10-04T14:04:45.355Z,21.87
2018-10-04T14:07:14.332Z,21.89
2018-10-04T14:09:44.305Z,21.92
2018-10-04T14:12:13.150Z,21.86
2018-10-04T14:14:42.187Z,21.73
2018-10-04T14:17:11.092Z,21.61
2018-10-04T14:19:40.110Z,21.55
2018-10-04T14:22:09.797Z,21.59
2018-10-04T14:24:38.885Z,21.64
2018-10-04T14:27:07.955Z,21.70
2018-10-04T14:29:38.040Z,21.73
2018-10-04T14:32:06.955Z,21.76
2018-10-04T14:34:36.138Z,21.79
2018-10-04T14:37:05.891Z,21.76
2018-10-04T14:39:34.970Z,21.68
2018-10-04T14:42:04.152Z,21.51
2018-10-04T14:44:34.123Z,21.34
2018-10-04T14:47:03.668Z,21.17
2018-10-04T14:49:32.731Z,21.09
2018-10-04T14:52:01.806Z,21.07
2018-10-04T14:54:30.753Z,21.04
2018-10-04T14:56:59.650Z,20.96
2018-10-04T14:59:28.681Z,20.90
2018-10-04T15:01:57.574Z,20.83
2018-10-04T15:04:26.573Z,20.78
2018-10-04T15:06:55.689Z,20.74
2018-10-04T15:09:24.740Z,20.72
2018-10-04T15:11:53.906Z,20.66
2018-10-04T15:14:22.782Z,20.60
2018-10-04T15:16:51.738Z,20.57
2018-10-04T15:19:20.821Z,20.54
2018-10-04T15:21:49.991Z,20.49
2018-10-04T15:24:19.178Z,20.42
2018-10-04T15:26:48.257Z,20.37
2018-10-04T15:29:17.481Z,20.31
2018-10-04T15:31:47.019Z,20.25
2018-10-04T15:34:16.581Z,20.20
2018-10-04T15:36:46.491Z,20.18
2018-10-04T15:39:15.412Z,20.13
2018-10-04T15:41:44.493Z,20.10
2018-10-04T15:44:13.823Z,20.06
2018-10-04T15:46:42.754Z,20.04
2018-10-04T15:49:11.594Z,19.98
2018-10-04T15:51:40.517Z,19.93
2018-10-04T15:54:09.380Z,19.88
2018-10-04T15:56:38.386Z,19.81
2018-10-04T15:59:07.372Z,19.80
2018-10-04T16:01:36.339Z,19.76
2018-10-04T16:04:05.549Z,19.70
2018-10-04T16:06:34.879Z,19.68
2018-10-04T16:09:05.116Z,19.68
2018-10-04T16:11:34.135Z,19.67
2018-10-04T16:14:03.635Z,19.64
2018-10-04T16:16:32.741Z,19.64
2018-10-04T16:19:02.139Z,19.62
2018-10-04T16:21:31.551Z,19.58
2018-10-04T16:24:00.684Z,19.55
2018-10-04T16:26:30.126Z,19.52
2018-10-04T16:28:59.065Z,19.50
2018-10-04T16:31:28.144Z,19.47
2018-10-04T16:33:57.324Z,19.45
2018-10-04T16:36:26.449Z,19.44
2018-10-04T16:38:55.727Z,19.42
2018-10-04T16:41:31.202Z,19.38
2018-10-04T16:44:00.537Z,19.34
2018-10-04T16:46:29.614Z,19.30
2018-10-04T16:48:58.496Z,19.26
2018-10-04T16:51:27.557Z,19.21
2018-10-04T16:53:56.639Z,19.17
2018-10-04T16:56:25.591Z,19.12
2018-10-04T16:58:54.880Z,19.07
2018-10-04T17:01:23.870Z,19.03
2018-10-04T17:03:52.969Z,18.97
2018-10-04T17:06:21.977Z,18.92
2018-10-04T17:08:51.422Z,18.86
2018-10-04T17:11:20.931Z,18.81
2018-10-04T17:13:50.403Z,18.77
2018-10-04T17:16:19.351Z,18.72
2018-10-04T17:18:48.254Z,18.67
2018-10-04T17:21:17.221Z,18.64
2018-10-04T17:23:46.846Z,18.59
2018-10-04T17:26:15.971Z,18.53
2018-10-04T17:28:45.262Z,18.50
2018-10-04T17:31:14.305Z,18.48
2018-10-04T17:33:43.335Z,18.46
2018-10-04T17:36:12.733Z,18.42
2018-10-04T17:38:41.974Z,18.38
2018-10-04T17:41:10.933Z,18.36
2018-10-04T17:43:40.269Z,18.33
2018-10-04T17:46:09.259Z,18.26
2018-10-04T17:48:38.344Z,18.20
2018-10-04T17:51:07.593Z,18.15
2018-10-04T17:53:36.662Z,18.08
2018-10-04T17:56:06.103Z,18.02
2018-10-04T17:58:35.390Z,17.95
2018-10-04T18:01:05.834Z,17.89
2018-10-04T18:03:34.877Z,17.84
2018-10-04T18:06:04.820Z,17.79
2018-10-04T18:08:33.792Z,17.73
2018-10-04T18:11:03.057Z,17.65
2018-10-04T18:13:32.157Z,17.56
2018-10-04T18:16:01.405Z,17.56
2018-10-04T18:18:30.393Z,17.53
2018-10-04T18:20:59.696Z,17.49
2018-10-04T18:23:28.686Z,17.47
2018-10-04T18:25:57.646Z,17.44
2018-10-04T18:28:26.905Z,17.42
2018-10-04T18:30:55.953Z,17.40
2018-10-04T18:33:25.799Z,17.37
2018-10-04T18:35:54.780Z,17.35
2018-10-04T18:38:23.707Z,17.27
2018-10-04T18:40:52.763Z,17.28
2018-10-04T18:43:22.256Z,17.25
2018-10-04T18:45:51.645Z,17.20
2018-10-04T18:48:20.817Z,17.17
2018-10-04T18:50:49.773Z,17.14
2018-10-04T18:53:18.832Z,17.10
2018-10-04T18:55:47.764Z,17.06
2018-10-04T18:58:16.806Z,17.03
2018-10-04T19:00:46.937Z,16.99
2018-10-04T19:03:16.238Z,16.96
2018-10-04T19:05:45.518Z,16.92
2018-10-04T19:08:14.940Z,16.90
2018-10-04T19:10:44.086Z,16.87
2018-10-04T19:13:13.134Z,16.84
2018-10-04T19:15:42.179Z,16.81
2018-10-04T19:18:11.224Z,16.78
2018-10-04T19:20:40.495Z,16.77
2018-10-04T19:23:10.204Z,16.74
2018-10-04T19:25:39.481Z,16.71
2018-10-04T19:28:08.456Z,16.69
2018-10-04T19:30:37.493Z,16.66
2018-10-04T19:33:06.499Z,16.63
2018-10-04T19:35:35.719Z,16.61
2018-10-04T19:38:05.523Z,16.58
2018-10-04T19:40:34.554Z,16.54
2018-10-04T19:43:03.538Z,16.52
2018-10-04T19:45:32.962Z,16.49
2018-10-04T19:48:02.099Z,16.46
2018-10-04T19:50:31.314Z,16.44
2018-10-04T19:53:00.666Z,16.41
2018-10-04T19:55:30.236Z,16.39
2018-10-04T19:57:59.244Z,16.34
2018-10-04T20:00:28.409Z,16.33
2018-10-04T20:02:57.612Z,16.32
2018-10-04T20:05:26.759Z,16.29
2018-10-04T20:07:56.562Z,16.27
2018-10-04T20:10:25.743Z,16.24
2018-10-04T20:12:54.743Z,16.23
2018-10-04T20:15:23.929Z,16.21
2018-10-04T20:17:53.368Z,16.19
2018-10-04T20:20:22.568Z,16.14
2018-10-04T20:22:51.518Z,16.11
2018-10-04T20:25:20.534Z,16.08
2018-10-04T20:27:49.731Z,16.04
2018-10-04T20:30:18.709Z,16.01
2018-10-04T20:32:47.738Z,15.98
2018-10-04T20:35:16.592Z,15.95
2018-10-04T20:37:45.787Z,15.90
2018-10-04T20:40:14.696Z,15.87
2018-10-04T20:42:43.750Z,15.84
2018-10-04T20:45:13.134Z,15.82
2018-10-04T20:47:42.645Z,15.78
2018-10-04T20:50:12.044Z,15.75
2018-10-04T20:52:41.446Z,15.72
2018-10-04T20:55:10.701Z,15.68
2018-10-04T20:57:39.639Z,15.66
2018-10-04T21:00:09.529Z,15.63
2018-10-04T21:02:39.113Z,15.61
2018-10-04T21:05:08.391Z,15.59
2018-10-04T21:07:37.440Z,15.57
2018-10-04T21:10:06.493Z,15.55
2018-10-04T21:12:35.576Z,15.53
2018-10-04T21:15:04.584Z,15.51
2018-10-04T21:17:33.519Z,15.50
2018-10-04T21:20:02.634Z,15.49
2018-10-04T21:22:31.524Z,15.47
2018-10-04T21:25:01.315Z,15.46
2018-10-04T21:27:36.593Z,15.46
2018-10-04T21:30:06.818Z,15.46
2018-10-04T21:32:35.893Z,15.44
2018-10-04T21:35:04.873Z,15.43
2018-10-04T21:37:34.990Z,15.42
2018-10-04T21:40:04.110Z,15.42
2018-10-04T21:42:33.073Z,15.42
2018-10-04T21:45:02.049Z,15.41
2018-10-04T21:47:31.230Z,15.38
2018-10-04T21:50:00.012Z,15.36
2018-10-04T21:52:28.883Z,15.34
2018-10-04T21:54:58.993Z,15.33
2018-10-04T21:57:27.801Z,15.32
2018-10-04T21:59:56.522Z,15.31
2018-10-04T22:02:25.440Z,15.30
2018-10-04T22:04:54.504Z,15.30
2018-10-04T22:07:23.346Z,15.29
2018-10-04T22:09:54.897Z,15.28
2018-10-04T22:12:24.041Z,15.28
2018-10-04T22:14:53.526Z,15.27
2018-10-04T22:17:22.254Z,15.26
2018-10-04T22:19:50.940Z,15.23
2018-10-04T22:22:19.750Z,15.21
2018-10-04T22:24:48.502Z,15.19
2018-10-04T22:27:17.197Z,15.17
2018-10-04T22:29:45.909Z,15.14
2018-10-04T22:32:14.568Z,15.12
2018-10-04T22:34:43.314Z,15.08
2018-10-04T22:37:12.116Z,15.04
2018-10-04T22:39:40.842Z,14.99
2018-10-04T22:42:09.686Z,14.93
2018-10-04T22:44:38.414Z,14.90
2018-10-04T22:47:08.017Z,14.86
2018-10-04T22:49:36.705Z,14.84
2018-10-04T22:52:05.521Z,14.85
2018-10-04T22:54:34.286Z,14.83
2018-10-04T22:57:03.189Z,14.81
2018-10-04T22:59:31.872Z,14.78
2018-10-04T23:02:01.270Z,14.78
2018-10-04T23:04:30.204Z,14.77
2018-10-04T23:06:58.991Z,14.75
2018-10-04T23:09:27.823Z,14.75
2018-10-04T23:11:56.801Z,14.73
2018-10-04T23:14:25.884Z,14.73
2018-10-04T23:16:55.138Z,14.72
2018-10-04T23:19:24.267Z,14.72
2018-10-04T23:21:53.688Z,14.74
2018-10-04T23:24:22.661Z,14.75
2018-10-04T23:26:51.960Z,14.76
2018-10-04T23:29:21.149Z,14.77
2018-10-04T23:31:50.390Z,14.78
2018-10-04T23:34:19.249Z,14.80
2018-10-04T23:36:48.315Z,14.83
2018-10-04T23:39:17.336Z,14.82
2018-10-04T23:41:46.354Z,14.82
2018-10-04T23:44:15.911Z,14.81
2018-10-04T23:46:44.911Z,14.78
2018-10-04T23:49:13.999Z,14.77
2018-10-04T23:51:43.098Z,14.75
2018-10-04T23:54:12.131Z,14.75
2018-10-04T23:56:41.371Z,14.75
2018-10-04T23:59:10.470Z,14.74
